createdAt,value
2023-04-27T00:00:58.003Z,5.48
2023-04-27T00:03:29.131Z,5.31
2023-04-27T00:05:59.154Z,5.38
2023-04-27T00:08:29.056Z,5.44
2023-04-27T00:10:59.423Z,5.40
2023-04-27T00:13:29.449Z,5.48
2023-04-27T00:16:00.956Z,5.52
2023-04-27T00:18:32.021Z,5.32
2023-04-27T00:21:01.975Z,5.21
2023-04-27T00:23:31.765Z,5.09
2023-04-27T00:26:01.564Z,5.04
2023-04-27T00:28:31.378Z,5.01
2023-04-27T00:31:03.645Z,5.04
2023-04-27T00:33:33.158Z,5.13
2023-04-27T00:36:03.336Z,5.01
2023-04-27T00:38:33.172Z,5.00
2023-04-27T00:41:05.614Z,4.97
2023-04-27T00:43:43.736Z,4.86
2023-04-27T00:46:14.998Z,4.84
2023-04-27T00:48:45.511Z,5.06
2023-04-27T00:51:15.658Z,5.04
2023-04-27T00:53:45.851Z,4.95
2023-04-27T00:56:17.323Z,4.81
2023-04-27T00:58:47.607Z,4.75
2023-04-27T01:01:17.866Z,4.82
2023-04-27T01:03:48.743Z,4.63
2023-04-27T01:06:18.352Z,4.61
2023-04-27T01:08:48.245Z,4.58
2023-04-27T01:11:18.114Z,4.61
2023-04-27T01:13:47.985Z,4.49
2023-04-27T01:16:19.689Z,4.48
2023-04-27T01:18:49.529Z,4.58
2023-04-27T01:21:19.368Z,4.70
2023-04-27T01:23:49.176Z,4.55
2023-04-27T01:26:19.026Z,4.49
2023-04-27T01:28:50.550Z,4.44
2023-04-27T01:31:20.375Z,4.61
2023-04-27T01:33:50.468Z,4.65
2023-04-27T01:36:20.046Z,4.36
2023-04-27T01:38:51.584Z,4.35
2023-04-27T01:41:21.457Z,4.31
2023-04-27T01:43:51.288Z,4.26
2023-04-27T01:46:21.326Z,4.30
2023-04-27T01:48:52.745Z,4.30
2023-04-27T01:51:22.531Z,4.37
2023-04-27T01:53:52.607Z,4.19
2023-04-27T01:56:22.136Z,4.16
2023-04-27T01:58:53.580Z,4.14
2023-04-27T02:01:23.379Z,4.12
2023-04-27T02:03:53.389Z,4.20
2023-04-27T02:06:23.162Z,4.08
2023-04-27T02:08:52.972Z,4.17
2023-04-27T02:11:22.761Z,4.14
2023-04-27T02:13:53.047Z,4.09
2023-04-27T02:16:24.429Z,4.07
2023-04-27T02:18:54.618Z,4.12
2023-04-27T02:21:24.525Z,3.99
2023-04-27T02:23:54.307Z,4.08
2023-04-27T02:26:25.651Z,4.13
2023-04-27T02:28:57.961Z,4.04
2023-04-27T02:31:28.352Z,4.00
2023-04-27T02:33:58.135Z,3.92
2023-04-27T02:36:27.833Z,3.89
2023-04-27T02:38:57.621Z,3.91
2023-04-27T02:41:28.492Z,3.84
2023-04-27T02:43:58.300Z,3.93
2023-04-27T02:46:28.097Z,4.12
2023-04-27T02:48:57.989Z,4.06
2023-04-27T02:51:28.163Z,3.84
2023-04-27T02:53:57.960Z,3.73
2023-04-27T02:56:28.042Z,3.70
2023-04-27T02:58:57.886Z,3.70
2023-04-27T03:01:27.723Z,3.75
2023-04-27T03:03:57.830Z,3.61
2023-04-27T03:06:27.762Z,3.67
2023-04-27T03:08:57.933Z,3.67
2023-04-27T03:11:29.456Z,3.54
2023-04-27T03:14:00.688Z,3.54
2023-04-27T03:16:32.093Z,3.58
2023-04-27T03:19:01.780Z,3.69
2023-04-27T03:21:32.960Z,3.62
2023-04-27T03:24:02.934Z,3.65
2023-04-27T03:26:33.596Z,3.67
2023-04-27T03:29:03.386Z,3.68
2023-04-27T03:31:33.292Z,3.70
2023-04-27T03:34:03.494Z,3.54
2023-04-27T03:36:33.342Z,3.54
2023-04-27T03:39:03.682Z,3.65
2023-04-27T03:41:33.549Z,3.60
2023-04-27T03:44:03.422Z,3.62
2023-04-27T03:46:35.299Z,3.50
2023-04-27T03:49:05.648Z,3.59
2023-04-27T03:51:35.417Z,3.59
2023-04-27T03:54:07.380Z,3.60
2023-04-27T03:56:38.132Z,3.66
2023-04-27T03:59:08.812Z,3.52
2023-04-27T04:01:40.195Z,3.43
2023-04-27T04:04:11.528Z,3.46
2023-04-27T04:06:41.430Z,3.50
2023-04-27T04:09:12.641Z,3.36
2023-04-27T04:11:42.880Z,3.45
2023-04-27T04:14:14.145Z,3.40
2023-04-27T04:16:43.951Z,3.39
2023-04-27T04:19:15.113Z,3.39
2023-04-27T04:21:45.151Z,3.44
2023-04-27T04:24:16.054Z,3.32
2023-04-27T04:26:46.021Z,3.43
2023-04-27T04:29:16.227Z,3.48
2023-04-27T04:31:46.492Z,3.46
2023-04-27T04:34:16.367Z,3.43
2023-04-27T04:36:47.264Z,3.47
2023-04-27T04:39:17.214Z,3.46
2023-04-27T04:41:47.398Z,3.28
2023-04-27T04:44:17.467Z,3.35
2023-04-27T04:46:47.670Z,3.51
2023-04-27T04:49:17.639Z,3.46
2023-04-27T04:51:47.830Z,3.40
2023-04-27T04:54:17.334Z,3.40
2023-04-27T04:56:47.232Z,3.48
2023-04-27T04:59:17.549Z,3.51
2023-04-27T05:01:47.389Z,3.52
2023-04-27T05:04:18.692Z,3.57
2023-04-27T05:06:48.857Z,3.70
2023-04-27T05:09:18.729Z,3.69
2023-04-27T05:11:48.295Z,3.67
2023-04-27T05:14:17.940Z,3.76
2023-04-27T05:16:49.207Z,4.02
2023-04-27T05:19:20.699Z,3.87
2023-04-27T05:21:50.586Z,4.18
2023-04-27T05:24:20.100Z,4.17
2023-04-27T05:26:49.894Z,4.33
2023-04-27T05:29:19.717Z,4.27
2023-04-27T05:31:49.645Z,4.51
2023-04-27T05:34:19.292Z,4.62
2023-04-27T05:36:49.120Z,4.79
2023-04-27T05:39:18.940Z,4.89
2023-04-27T05:41:49.020Z,4.84
2023-04-27T05:44:18.841Z,5.38
2023-04-27T05:46:48.646Z,5.45
2023-04-27T05:49:18.475Z,5.45
2023-04-27T05:51:48.288Z,5.53
2023-04-27T05:54:18.145Z,5.49
2023-04-27T05:56:47.686Z,5.65
2023-04-27T05:59:17.506Z,5.60
2023-04-27T06:01:47.345Z,5.72
2023-04-27T06:04:17.322Z,5.82
2023-04-27T06:06:47.598Z,5.84
2023-04-27T06:09:17.416Z,5.92
2023-04-27T06:11:47.447Z,5.79
2023-04-27T06:14:17.604Z,6.16
2023-04-27T06:16:47.435Z,6.47
2023-04-27T06:19:17.261Z,6.52
2023-04-27T06:21:47.071Z,6.52
2023-04-27T06:24:17.106Z,7.14
2023-04-27T06:26:47.260Z,7.25
2023-04-27T06:29:17.268Z,7.42
2023-04-27T06:31:47.320Z,7.45
2023-04-27T06:34:17.223Z,7.63
2023-04-27T06:36:47.102Z,7.61
2023-04-27T06:39:17.009Z,8.07
2023-04-27T06:41:46.816Z,8.07
2023-04-27T06:44:18.423Z,8.00
2023-04-27T06:46:48.288Z,8.13
2023-04-27T06:49:17.909Z,8.11
2023-04-27T06:51:47.721Z,8.68
2023-04-27T06:54:17.519Z,8.78
2023-04-27T06:56:47.431Z,9.04
2023-04-27T06:59:17.339Z,9.23
2023-04-27T07:01:47.261Z,9.21
2023-04-27T07:04:17.106Z,8.89
2023-04-27T07:06:47.138Z,9.01
2023-04-27T07:09:27.152Z,9.14
2023-04-27T07:11:48.481Z,9.47
2023-04-27T07:14:18.319Z,9.68
2023-04-27T07:16:48.126Z,9.45
2023-04-27T07:19:18.294Z,10.02
2023-04-27T07:21:48.241Z,9.97
2023-04-27T07:24:21.510Z,10.26
2023-04-27T07:26:51.304Z,10.56
2023-04-27T07:29:27.010Z,10.18
2023-04-27T07:31:52.893Z,10.45
2023-04-27T07:34:23.031Z,10.15
2023-04-27T07:36:56.287Z,10.12
2023-04-27T07:39:26.666Z,10.36
2023-04-27T07:41:56.673Z,10.59
2023-04-27T07:44:26.982Z,10.64
2023-04-27T07:46:58.537Z,10.72
2023-04-27T07:49:28.380Z,10.76
2023-04-27T07:51:58.482Z,10.87
2023-04-27T07:54:28.361Z,10.91
2023-04-27T07:56:58.182Z,11.50
2023-04-27T07:59:30.145Z,11.13
2023-04-27T08:02:17.675Z,11.42
2023-04-27T08:04:31.486Z,11.73
2023-04-27T08:07:02.517Z,11.64
2023-04-27T08:09:32.714Z,11.92
2023-04-27T08:12:02.931Z,12.55
2023-04-27T08:14:37.206Z,12.07
2023-04-27T08:17:06.910Z,12.07
2023-04-27T08:19:36.868Z,12.37
2023-04-27T08:22:06.705Z,12.20
2023-04-27T08:24:36.493Z,12.24
2023-04-27T08:27:08.190Z,12.14
2023-04-27T08:29:37.988Z,12.15
2023-04-27T08:32:09.553Z,12.47
2023-04-27T08:34:39.368Z,12.67
2023-04-27T08:37:09.211Z,13.27
2023-04-27T08:39:39.071Z,13.14
2023-04-27T08:42:16.116Z,13.33
2023-04-27T08:44:46.224Z,13.34
2023-04-27T08:47:16.417Z,13.71
2023-04-27T08:49:46.535Z,12.98
2023-04-27T08:52:18.573Z,13.08
2023-04-27T08:54:48.430Z,13.37
2023-04-27T08:57:18.772Z,13.61
2023-04-27T08:59:51.693Z,14.06
2023-04-27T09:02:22.504Z,14.09
2023-04-27T09:04:52.493Z,14.74
2023-04-27T09:07:22.622Z,14.89
2023-04-27T09:09:53.993Z,14.48
2023-04-27T09:12:24.036Z,14.03
2023-04-27T09:15:06.214Z,14.86
2023-04-27T09:17:37.763Z,14.53
2023-04-27T09:20:13.827Z,14.86
2023-04-27T09:22:49.146Z,15.27
2023-04-27T09:25:29.513Z,15.54
2023-04-27T09:28:00.832Z,14.65
2023-04-27T09:30:31.377Z,14.78
2023-04-27T09:33:03.277Z,15.34
2023-04-27T09:35:34.162Z,15.52
2023-04-27T09:38:04.136Z,15.20
2023-04-27T09:40:34.056Z,15.35
2023-04-27T09:43:03.869Z,15.52
2023-04-27T09:45:35.330Z,15.59
2023-04-27T09:48:07.037Z,15.78
2023-04-27T09:50:42.422Z,15.78
2023-04-27T09:53:23.917Z,15.91
2023-04-27T09:56:05.816Z,16.08
2023-04-27T09:58:47.797Z,15.74
2023-04-27T10:01:29.733Z,15.74
2023-04-27T10:04:21.450Z,15.52
2023-04-27T10:07:00.459Z,15.52
2023-04-27T10:09:36.545Z,15.83
2023-04-27T10:12:21.135Z,15.83
2023-04-27T10:14:53.000Z,15.66
2023-04-27T10:17:34.187Z,16.14
2023-04-27T10:20:08.198Z,16.01
2023-04-27T10:22:45.042Z,16.01
2023-04-27T10:25:19.679Z,16.24
2023-04-27T10:28:04.061Z,16.56
2023-04-27T10:30:38.903Z,17.12
2023-04-27T10:33:11.997Z,16.92
2023-04-27T10:35:46.757Z,17.08
2023-04-27T10:38:21.863Z,17.08
2023-04-27T10:41:01.738Z,16.83
2023-04-27T10:43:34.449Z,17.07
2023-04-27T10:46:15.754Z,17.07
2023-04-27T10:48:46.216Z,16.63
2023-04-27T10:51:18.738Z,17.08
2023-04-27T10:53:52.069Z,17.63
2023-04-27T10:56:23.508Z,17.82
2023-04-27T10:58:53.377Z,17.47
2023-04-27T11:01:28.961Z,17.46
2023-04-27T11:03:59.852Z,17.46
2023-04-27T11:06:33.462Z,17.31
2023-04-27T11:09:04.480Z,17.86
2023-04-27T11:11:34.302Z,17.86
2023-04-27T11:14:04.257Z,17.75
2023-04-27T11:16:34.162Z,18.02
2023-04-27T11:19:07.246Z,18.26
2023-04-27T11:21:37.216Z,18.24
2023-04-27T11:24:08.842Z,16.64
2023-04-27T11:26:38.699Z,16.64
2023-04-27T11:29:12.385Z,16.95
2023-04-27T11:31:45.913Z,17.74
2023-04-27T11:34:22.786Z,16.81
2023-04-27T11:39:38.725Z,17.67
2023-04-27T11:42:18.231Z,17.67
2023-04-27T11:44:56.380Z,18.28
2023-04-27T11:47:28.603Z,18.17
2023-04-27T11:50:00.573Z,19.09
2023-04-27T11:52:32.809Z,18.63
2023-04-27T11:55:08.931Z,18.47
2023-04-27T11:57:40.308Z,18.23
2023-04-27T12:00:14.635Z,18.37
2023-04-27T12:02:45.563Z,18.37
2023-04-27T12:05:15.687Z,18.26
2023-04-27T12:07:46.094Z,18.89
2023-04-27T12:10:18.419Z,18.70
2023-04-27T12:12:48.236Z,18.70
2023-04-27T12:15:18.130Z,18.85
2023-04-27T12:17:48.062Z,18.22
2023-04-27T12:20:18.388Z,18.11
2023-04-27T12:22:48.377Z,18.86
2023-04-27T12:25:19.768Z,18.73
2023-04-27T12:27:50.055Z,18.51
2023-04-27T12:30:19.876Z,18.51
2023-04-27T12:32:49.707Z,18.34
2023-04-27T12:35:19.450Z,18.93
2023-04-27T12:37:50.164Z,18.40
2023-04-27T12:40:20.090Z,18.14
2023-04-27T12:42:49.897Z,18.62
2023-04-27T12:45:19.748Z,19.14
2023-04-27T12:48:01.688Z,19.41
2023-04-27T12:50:21.807Z,18.66
2023-04-27T12:52:51.986Z,19.45
2023-04-27T12:55:32.030Z,19.16
2023-04-27T12:57:53.165Z,18.92
2023-04-27T13:00:22.914Z,18.92
2023-04-27T13:02:53.821Z,18.62
2023-04-27T13:05:23.800Z,18.54
2023-04-27T13:07:53.872Z,19.27
2023-04-27T13:10:23.654Z,19.13
2023-04-27T13:12:55.063Z,19.02
2023-04-27T13:15:24.923Z,18.85
2023-04-27T13:17:56.265Z,18.83
2023-04-27T13:20:26.141Z,19.09
2023-04-27T13:22:55.977Z,19.35
2023-04-27T13:25:25.830Z,19.15
2023-04-27T13:27:57.292Z,19.31
2023-04-27T13:30:27.106Z,19.46
2023-04-27T13:33:07.127Z,19.16
2023-04-27T13:35:28.616Z,18.98
2023-04-27T13:37:58.790Z,19.21
2023-04-27T13:40:29.670Z,18.71
2023-04-27T13:42:59.511Z,19.11
2023-04-27T13:45:29.473Z,18.84
2023-04-27T13:47:59.339Z,18.52
2023-04-27T13:50:29.311Z,18.52
2023-04-27T13:52:59.106Z,18.61
2023-04-27T13:55:28.925Z,18.61
2023-04-27T13:57:59.221Z,18.44
2023-04-27T14:00:30.434Z,18.60
2023-04-27T14:03:01.050Z,18.37
2023-04-27T14:05:32.019Z,18.67
2023-04-27T14:08:01.837Z,19.00
2023-04-27T14:10:31.536Z,18.20
2023-04-27T14:13:01.661Z,17.77
2023-04-27T14:15:33.110Z,18.11
2023-04-27T14:18:04.624Z,17.67
2023-04-27T14:20:37.697Z,17.67
2023-04-27T14:23:07.773Z,17.62
2023-04-27T14:25:39.066Z,17.97
2023-04-27T14:28:10.598Z,17.69
2023-04-27T14:30:40.496Z,17.73
2023-04-27T14:33:10.778Z,18.00
2023-04-27T14:35:40.697Z,17.70
2023-04-27T14:38:10.210Z,18.14
2023-04-27T14:40:41.097Z,17.80
2023-04-27T14:43:11.054Z,17.69
2023-04-27T14:45:50.673Z,18.09
2023-04-27T14:48:12.877Z,17.92
2023-04-27T14:50:42.885Z,17.96
2023-04-27T14:53:12.735Z,17.90
2023-04-27T14:55:44.209Z,17.30
2023-04-27T14:58:14.252Z,17.49
2023-04-27T15:00:44.424Z,17.49
2023-04-27T15:03:14.795Z,17.63
2023-04-27T15:05:45.607Z,18.29
2023-04-27T15:08:15.292Z,17.45
2023-04-27T15:10:45.204Z,17.55
2023-04-27T15:13:15.314Z,17.30
2023-04-27T15:15:47.780Z,17.88
2023-04-27T15:18:19.258Z,17.90
2023-04-27T15:20:54.111Z,17.90
2023-04-27T15:23:24.602Z,17.60
2023-04-27T15:25:59.140Z,17.60
2023-04-27T15:28:28.890Z,17.62
2023-04-27T15:30:58.748Z,17.63
2023-04-27T15:33:28.846Z,17.50
2023-04-27T15:35:59.228Z,17.98
2023-04-27T15:38:28.726Z,17.98
2023-04-27T15:40:58.823Z,17.60
2023-04-27T15:43:28.648Z,17.69
2023-04-27T15:45:58.459Z,17.62
2023-04-27T15:48:28.255Z,17.78
2023-04-27T15:50:58.049Z,17.11
2023-04-27T15:53:27.861Z,17.34
2023-04-27T15:55:57.654Z,17.34
2023-04-27T15:58:27.742Z,17.21
2023-04-27T16:00:57.664Z,17.01
2023-04-27T16:03:27.888Z,17.54
2023-04-27T16:05:57.763Z,17.57
2023-04-27T16:08:27.857Z,17.49
2023-04-27T16:10:57.715Z,17.26
2023-04-27T16:13:28.433Z,17.08
2023-04-27T16:15:58.380Z,17.56
2023-04-27T16:18:27.900Z,17.56
2023-04-27T16:20:58.686Z,17.31
2023-04-27T16:23:28.855Z,17.28
2023-04-27T16:25:58.669Z,17.28
2023-04-27T16:28:28.860Z,17.27
2023-04-27T16:30:58.814Z,17.80
2023-04-27T16:33:28.703Z,17.10
2023-04-27T16:35:58.597Z,17.27
2023-04-27T16:38:28.425Z,16.91
2023-04-27T16:40:58.689Z,17.00
2023-04-27T16:43:29.867Z,16.90
2023-04-27T16:45:59.715Z,16.46
2023-04-27T16:48:30.198Z,16.80
2023-04-27T16:51:00.197Z,16.44
2023-04-27T16:53:30.600Z,16.09
2023-04-27T16:56:03.335Z,16.09
2023-04-27T16:58:36.175Z,16.31
2023-04-27T17:01:06.151Z,15.76
2023-04-27T17:03:36.423Z,15.68
2023-04-27T17:06:06.390Z,15.68
2023-04-27T17:08:36.197Z,15.76
2023-04-27T17:11:14.369Z,15.35
2023-04-27T17:13:43.898Z,15.46
2023-04-27T17:16:15.167Z,15.49
2023-04-27T17:18:46.921Z,15.43
2023-04-27T17:21:17.327Z,15.44
2023-04-27T17:23:47.526Z,15.29
2023-04-27T17:26:18.934Z,15.11
2023-04-27T17:28:50.030Z,14.71
2023-04-27T17:31:19.959Z,14.71
2023-04-27T17:33:50.260Z,14.75
2023-04-27T17:36:20.561Z,14.86
2023-04-27T17:38:50.371Z,14.83
2023-04-27T17:41:20.875Z,14.61
2023-04-27T17:43:50.970Z,14.97
2023-04-27T17:46:20.839Z,14.82
2023-04-27T17:48:50.718Z,14.99
2023-04-27T17:51:20.617Z,14.90
2023-04-27T17:53:50.841Z,14.65
2023-04-27T17:56:20.618Z,14.65
2023-04-27T17:58:50.852Z,14.36
2023-04-27T18:01:20.819Z,14.36
2023-04-27T18:03:51.371Z,14.25
2023-04-27T18:06:21.406Z,14.25
2023-04-27T18:08:51.602Z,13.75
2023-04-27T18:11:22.069Z,13.75
2023-04-27T18:13:52.530Z,13.95
2023-04-27T18:16:22.925Z,13.75
2023-04-27T18:18:53.078Z,14.00
2023-04-27T18:21:22.968Z,13.62
2023-04-27T18:23:53.048Z,13.74
2023-04-27T18:26:23.022Z,13.74
2023-04-27T18:28:53.136Z,13.75
2023-04-27T18:31:24.705Z,13.75
2023-04-27T18:33:54.976Z,13.82
2023-04-27T18:36:25.619Z,13.79
2023-04-27T18:38:57.932Z,13.75
2023-04-27T18:41:27.819Z,13.75
2023-04-27T18:44:05.693Z,13.77
2023-04-27T18:46:35.893Z,13.41
2023-04-27T18:49:06.260Z,13.68
2023-04-27T18:51:36.080Z,13.68
2023-04-27T18:56:36.330Z,13.40
2023-04-27T18:59:06.447Z,13.38
2023-04-27T19:01:37.743Z,13.38
2023-04-27T19:04:08.005Z,13.50
2023-04-27T19:06:37.945Z,13.38
2023-04-27T19:09:09.250Z,13.32
2023-04-27T19:11:39.280Z,13.07
2023-04-27T19:14:09.362Z,13.20
2023-04-27T19:16:39.148Z,13.33
2023-04-27T19:19:09.348Z,13.05
2023-04-27T19:21:39.327Z,13.05
2023-04-27T19:24:09.593Z,13.12
2023-04-27T19:26:39.469Z,13.12
2023-04-27T19:29:09.716Z,13.20
2023-04-27T19:31:39.660Z,12.78
2023-04-27T19:34:09.553Z,13.00
2023-04-27T19:36:39.466Z,12.79
2023-04-27T19:39:09.564Z,12.90
2023-04-27T19:41:39.093Z,12.88
2023-04-27T19:44:09.030Z,12.88
2023-04-27T19:46:38.990Z,12.83
2023-04-27T19:49:09.164Z,12.73
2023-04-27T19:51:40.621Z,12.72
2023-04-27T19:54:10.816Z,12.86
2023-04-27T19:56:41.173Z,12.63
2023-04-27T19:59:11.262Z,12.83
2023-04-27T20:01:41.185Z,12.83
2023-04-27T20:04:11.699Z,12.52
2023-04-27T20:06:43.253Z,12.43
2023-04-27T20:09:13.439Z,12.73
2023-04-27T20:11:43.221Z,12.73
2023-04-27T20:14:13.694Z,12.53
2023-04-27T20:16:43.756Z,12.57
2023-04-27T20:19:15.505Z,12.54
2023-04-27T20:21:45.528Z,12.58
2023-04-27T20:24:16.219Z,12.31
2023-04-27T20:26:46.661Z,12.31
2023-04-27T20:29:16.765Z,12.50
2023-04-27T20:31:48.507Z,12.46
2023-04-27T20:34:18.789Z,12.43
2023-04-27T20:36:49.786Z,12.40
2023-04-27T20:39:20.310Z,12.39
2023-04-27T20:41:50.983Z,12.30
2023-04-27T20:44:22.392Z,12.20
2023-04-27T20:46:52.221Z,12.43
2023-04-27T20:49:32.037Z,12.44
2023-04-27T20:51:53.501Z,12.38
2023-04-27T20:54:23.308Z,12.38
2023-04-27T20:56:53.106Z,12.26
2023-04-27T20:59:22.940Z,12.43
2023-04-27T21:01:53.136Z,12.32
2023-04-27T21:04:22.904Z,12.30
2023-04-27T21:06:52.804Z,12.29
2023-04-27T21:09:22.731Z,12.26
2023-04-27T21:11:52.531Z,12.24
2023-04-27T21:14:22.333Z,12.09
2023-04-27T21:16:52.147Z,12.07
2023-04-27T21:19:22.254Z,12.11
2023-04-27T21:21:52.142Z,11.97
2023-04-27T21:24:22.270Z,12.18
2023-04-27T21:26:52.228Z,12.40
2023-04-27T21:29:22.121Z,12.17
2023-04-27T21:31:51.930Z,12.06
2023-04-27T21:34:21.845Z,12.04
2023-04-27T21:36:51.748Z,11.88
2023-04-27T21:39:21.608Z,12.01
2023-04-27T21:41:51.468Z,11.86
2023-04-27T21:44:21.312Z,11.83
2023-04-27T21:46:51.654Z,11.83
2023-04-27T21:49:21.625Z,11.97
2023-04-27T21:51:51.425Z,11.72
2023-04-27T21:54:23.224Z,11.82
2023-04-27T21:56:53.023Z,11.65
2023-04-27T21:59:22.843Z,11.83
2023-04-27T22:01:52.743Z,11.85
2023-04-27T22:04:23.198Z,11.81
2023-04-27T22:06:53.017Z,11.57
2023-04-27T22:09:22.868Z,11.66
2023-04-27T22:11:52.753Z,11.89
2023-04-27T22:14:22.658Z,11.81
2023-04-27T22:16:52.836Z,12.00
2023-04-27T22:19:24.588Z,11.97
2023-04-27T22:21:55.686Z,11.68
2023-04-27T22:24:25.474Z,11.82
2023-04-27T22:26:55.488Z,11.86
2023-04-27T22:29:25.705Z,11.71
2023-04-27T22:31:55.688Z,11.74
2023-04-27T22:34:26.122Z,11.92
2023-04-27T22:36:56.956Z,11.70
2023-04-27T22:39:27.256Z,11.82
2023-04-27T22:41:57.048Z,11.67
2023-04-27T22:44:26.682Z,11.90
2023-04-27T22:46:57.039Z,11.64
2023-04-27T22:49:27.214Z,11.81
2023-04-27T22:51:57.656Z,11.97
2023-04-27T22:54:28.755Z,11.97
2023-04-27T22:56:58.680Z,11.89
2023-04-27T22:59:28.509Z,11.85
2023-04-27T23:01:58.510Z,12.00
2023-04-27T23:04:29.101Z,11.70
2023-04-27T23:06:59.044Z,11.65
2023-04-27T23:09:28.847Z,11.68
2023-04-27T23:11:58.957Z,11.75
2023-04-27T23:14:29.178Z,11.64
2023-04-27T23:16:59.076Z,11.56
2023-04-27T23:19:29.453Z,11.53
2023-04-27T23:22:01.504Z,11.59
2023-04-27T23:24:31.391Z,11.57
2023-04-27T23:27:01.367Z,11.52
2023-04-27T23:29:31.933Z,11.50
2023-04-27T23:32:04.885Z,11.39
2023-04-27T23:34:34.983Z,11.45
2023-04-27T23:37:04.829Z,11.33
2023-04-27T23:39:34.354Z,11.40
2023-04-27T23:42:05.538Z,11.47
2023-04-27T23:44:35.062Z,11.37
2023-04-27T23:47:04.870Z,11.33
2023-04-27T23:49:35.138Z,11.33
2023-04-27T23:52:05.662Z,11.44
2023-04-27T23:54:35.274Z,11.40
2023-04-27T23:57:05.130Z,11.22
2023-04-27T23:59:35.923Z,11.34
